Impacts METAR Board INFO
IDs:

KSLC - Salt Lake City Intl, UT, US

Updated at: 1805 UTC 17 Jan 2018
Potential Impact None Slight Moderate High
Time17/06Z 17/07Z 17/08Z 17/09Z 17/10Z 17/11Z 17/12Z 17/13Z 17/14Z 17/15Z 17/16Z 17/17Z 17/18Z
VIS10 10 10 10 10 10 10 10 10 10 10 10 10
CIG90 200 90 200 -- -- -- -- -- -- 220 220 230
CoverBKNBKNBKNBKNSCTFEWFEWFEWFEWFEWBKNBKNBKN
FltCatVFRVFRVFRVFRVFRVFRVFRVFRVFRVFRVFRVFRVFR
WX--------------------------
WDir230902600170110000140130160140
WSpd5 4 5 0 4 3 0 0 0 4 4 4 3
WGst-- -- -- -- -- -- -- -- -- -- -- -- --
Raw hourly METARs
KSLC 170554Z 23005KT 10SM BKN090 BKN200 03/M01 A3033 RMK AO2 SLP269 T00331011 10056 20033 51007
KSLC 170654Z 09004KT 10SM SCT090 BKN200 03/M02 A3035 RMK AO2 SLP274 T00281017 401111006
KSLC 170754Z 26005KT 10SM BKN090 BKN200 03/M01 A3035 RMK AO2 SLP272 T00331011
KSLC 170854Z 00000KT 10SM SCT085 BKN200 02/M02 A3035 RMK AO2 SLP272 T00221017 50005
KSLC 170954Z 17004KT 10SM FEW095 SCT200 02/M02 A3035 RMK AO2 SLP272 T00171022
KSLC 171054Z COR 11003KT 10SM FEW085 FEW200 01/M02 A3035 RMK AO2 SLP276 T00061022
KSLC 171154Z 00000KT 10SM FEW085 FEW200 01/M03 A3036 RMK AO2 SLP286 T00111028 10039 20006 53005
KSLC 171254Z 00000KT 10SM FEW085 FEW200 00/M03 A3037 RMK AO2 SLP290 T00001028
KSLC 171354Z 00000KT 10SM FEW085 FEW200 00/M03 A3038 RMK AO2 SLP292 T00001028
KSLC 171454Z COR 14004KT 10SM FEW065 FEW200 00/M03 A3039 RMK AO2 SLP291 T00001028 53009
KSLC 171554Z 13004KT 10SM FEW060 BKN220 02/M03 A3041 RMK AO2 SLP304 T00171028
KSLC 171654Z 16004KT 10SM FEW060 BKN220 03/M03 A3043 RMK AO2 SLP307 T00331028
KSLC 171754Z 14003KT 10SM FEW065 BKN230 06/M02 A3044 RMK AO2 SLP308 T00561022 10056 21006 51013